Time;durP1;ratioP1;P1;durP2;ratioP2;P2;SDS_P1;SDS_P2;PMS_P1;PMS_P2;Temp;Humidity;BMP_temperature;BMP_pressure;BME280_temperature;BME280_humidity;BME280_pressure;Samples;Min_cycle;Max_cycle;Signal;HPM_P1;HPM_P2
2024/01/10 00:00:06;;;;;;;7.07;3.47;;;;;;;-3.71;63.43;100456.81;334277;28;17952;-76
2024/01/10 00:00:18;;;;;;;7.82;3.45;;;;;;;-3.69;63.41;100457.75;341377;28;5269;-75
2024/01/10 00:00:30;;;;;;;6.75;3.08;;;;;;;-3.69;63.67;100455.19;334970;28;5327;-76
2024/01/10 00:00:42;;;;;;;6.88;3.28;;;;;;;-3.66;63.80;100455.34;341224;28;4615;-76
2024/01/10 00:00:55;;;;;;;6.97;3.42;;;;;;;-3.65;63.63;100454.50;338392;28;12997;-75
2024/01/10 00:01:07;;;;;;;6.88;3.55;;;;;;;-3.62;63.39;100457.19;339246;28;18463;-75
2024/01/10 00:01:20;;;;;;;6.72;3.08;;;;;;;-3.59;63.60;100458.97;340953;28;4656;-75
2024/01/10 00:01:32;;;;;;;7.53;2.72;;;;;;;-3.63;63.40;100455.44;332199;28;17976;-77
2024/01/10 00:01:44;;;;;;;7.03;2.65;;;;;;;-3.64;63.53;100453.72;335812;28;4616;-77
2024/01/10 00:01:56;;;;;;;7.93;2.80;;;;;;;-3.66;63.38;100452.78;338735;28;4652;-75
2024/01/10 00:02:09;;;;;;;8.07;2.85;;;;;;;-3.65;63.32;100457.06;339313;28;4762;-75
2024/01/10 00:02:21;;;;;;;9.48;3.30;;;;;;;-3.66;63.21;100457.88;337975;28;18286;-76
2024/01/10 00:02:33;;;;;;;8.82;3.50;;;;;;;-3.63;63.24;100459.66;339338;28;4561;-75
2024/01/10 00:02:45;;;;;;;7.95;3.47;;;;;;;-3.61;63.00;100458.03;337966;28;18136;-76
2024/01/10 00:02:57;;;;;;;7.63;3.42;;;;;;;-3.62;62.98;100459.72;335809;28;19452;-75
2024/01/10 00:03:09;;;;;;;6.85;3.50;;;;;;;-3.63;63.31;100452.88;338539;28;4538;-75
2024/01/10 00:03:21;;;;;;;7.43;3.58;;;;;;;-3.61;63.30;100458.03;337189;28;18227;-75
2024/01/10 00:03:33;;;;;;;8.75;4.15;;;;;;;-3.66;63.06;100454.47;341041;28;4509;-75
2024/01/10 00:03:45;;;;;;;10.80;4.18;;;;;;;-3.68;63.06;100456.94;340971;28;8815;-77
2024/01/10 00:03:57;;;;;;;9.68;3.85;;;;;;;-3.66;62.92;100455.34;338799;28;18413;-76
2024/01/10 00:04:09;;;;;;;7.28;3.45;;;;;;;-3.69;62.90;100459.44;341321;28;4569;-75
2024/01/10 00:04:21;;;;;;;6.75;3.30;;;;;;;-3.73;62.90;100455.91;333323;28;18736;-76
2024/01/10 00:04:34;;;;;;;6.57;3.15;;;;;;;-3.71;63.08;100455.97;340017;28;5165;-78
2024/01/10 00:04:46;;;;;;;8.23;3.50;;;;;;;-3.71;63.01;100456.81;337681;28;5542;-76
2024/01/10 00:04:57;;;;;;;7.93;3.75;;;;;;;-3.73;62.91;100458.44;340585;28;4693;-78
2024/01/10 00:05:10;;;;;;;7.13;3.65;;;;;;;-3.71;62.70;100455.97;340703;28;4607;-76
2024/01/10 00:05:22;;;;;;;6.25;3.38;;;;;;;-3.74;62.78;100451.63;337048;28;18277;-76
2024/01/10 00:05:34;;;;;;;6.90;3.28;;;;;;;-3.75;62.75;100457.50;338466;28;4623;-76
2024/01/10 00:05:46;;;;;;;8.90;3.70;;;;;;;-3.74;62.92;100449.09;338040;28;16210;-76
2024/01/10 00:05:58;;;;;;;10.25;4.10;;;;;;;-3.74;63.05;100454.19;331181;28;18634;-76
2024/01/10 00:06:11;;;;;;;8.75;4.00;;;;;;;-3.76;63.03;100448.19;338030;28;4586;-75
2024/01/10 00:06:23;;;;;;;9.82;3.67;;;;;;;-3.74;63.39;100451.63;334103;28;18298;-75
2024/01/10 00:06:35;;;;;;;9.00;3.58;;;;;;;-3.70;63.64;100452.59;339171;28;4570;-75
2024/01/10 00:06:47;;;;;;;7.30;3.40;;;;;;;-3.67;63.33;100452.72;336346;28;5467;-75
2024/01/10 00:06:59;;;;;;;6.68;3.15;;;;;;;-3.68;63.06;100449.34;338861;28;4643;-75
2024/01/10 00:07:11;;;;;;;9.57;3.30;;;;;;;-3.65;63.26;100446.88;337607;28;8587;-76
2024/01/10 00:07:23;;;;;;;8.98;3.45;;;;;;;-3.62;63.04;100447.00;334622;28;14860;-75
2024/01/10 00:07:36;;;;;;;7.80;3.65;;;;;;;-3.58;63.01;100448.00;333354;28;4694;-76
2024/01/10 00:07:48;;;;;;;7.47;3.73;;;;;;;-3.54;63.10;100443.88;337408;28;18428;-76
2024/01/10 00:08:00;;;;;;;8.18;3.42;;;;;;;-3.55;63.28;100442.16;341460;28;4661;-76
2024/01/10 00:08:12;;;;;;;9.05;3.50;;;;;;;-3.54;62.79;100451.50;339744;28;5282;-76
2024/01/10 00:08:24;;;;;;;8.93;3.55;;;;;;;-3.55;63.13;100447.25;337929;28;18201;-76
2024/01/10 00:08:37;;;;;;;7.32;3.38;;;;;;;-3.55;63.25;100447.25;340499;28;4536;-76
2024/01/10 00:08:49;;;;;;;7.45;3.70;;;;;;;-3.56;63.19;100445.50;338881;28;17678;-75
2024/01/10 00:09:02;;;;;;;8.52;3.50;;;;;;;-3.59;62.90;100448.78;336359;28;4765;-77
2024/01/10 00:09:14;;;;;;;8.88;3.55;;;;;;;-3.58;63.22;100442.03;338939;28;18553;-76
2024/01/10 00:09:26;;;;;;;8.90;3.45;;;;;;;-3.54;63.57;100443.88;340612;28;4688;-76
2024/01/10 00:09:38;;;;;;;8.48;3.22;;;;;;;-3.53;63.46;100438.00;338177;28;16867;-75
2024/01/10 00:09:50;;;;;;;7.90;3.20;;;;;;;-3.52;63.08;100444.78;339812;28;5316;-76
2024/01/10 00:10:04;;;;;;;7.43;3.40;;;;;;;-3.50;63.20;100445.72;339895;28;6901;-76
2024/01/10 00:10:16;;;;;;;8.30;3.88;;;;;;;-3.48;63.40;100445.00;336512;28;17836;-78
2024/01/10 00:10:28;;;;;;;8.30;3.60;;;;;;;-3.53;63.59;100445.63;340431;28;4593;-77
2024/01/10 00:10:40;;;;;;;6.57;3.28;;;;;;;-3.52;62.99;100442.25;338010;28;18308;-76
2024/01/10 00:10:54;;;;;;;7.75;3.72;;;;;;;-3.49;63.27;100444.94;341597;28;4739;-76
2024/01/10 00:11:06;;;;;;;8.27;3.60;;;;;;;-3.48;63.17;100439.00;338719;28;19175;-76
2024/01/10 00:11:18;;;;;;;8.70;3.30;;;;;;;-3.45;63.11;100439.16;341683;28;5345;-76
2024/01/10 00:11:31;;;;;;;10.18;3.95;;;;;;;-3.43;63.09;100440.91;338275;28;18079;-77
2024/01/10 00:11:46;;;;;;;10.10;4.15;;;;;;;-3.39;63.22;100438.50;338916;28;18359;-77
2024/01/10 00:11:58;;;;;;;8.50;3.88;;;;;;;-3.38;63.39;100448.75;336549;28;5232;-75
2024/01/10 00:12:10;;;;;;;8.40;3.60;;;;;;;-3.41;63.33;100440.97;337782;28;18374;-77
2024/01/10 00:12:22;;;;;;;6.18;3.30;;;;;;;-3.42;62.85;100439.25;340434;28;4707;-76
2024/01/10 00:12:36;;;;;;;6.95;3.45;;;;;;;-3.40;63.23;100437.66;338221;28;5099;-75
2024/01/10 00:12:48;;;;;;;7.63;3.47;;;;;;;-3.36;63.28;100438.59;341638;28;4853;-76
2024/01/10 00:13:00;;;;;;;8.13;3.20;;;;;;;-3.37;62.84;100441.97;338804;28;18950;-77
2024/01/10 00:13:12;;;;;;;8.48;3.40;;;;;;;-3.38;63.02;100438.56;341205;28;5189;-77
2024/01/10 00:13:24;;;;;;;7.47;3.42;;;;;;;-3.36;63.08;100443.69;339495;28;5461;-76
2024/01/10 00:13:36;;;;;;;7.07;3.75;;;;;;;-3.35;62.73;100446.28;337943;28;9090;-77
2024/01/10 00:13:48;;;;;;;7.93;3.78;;;;;;;-3.32;62.79;100440.44;340116;28;4586;-75
2024/01/10 00:14:03;;;;;;;9.02;4.25;;;;;;;-3.31;62.86;100445.59;336892;28;17795;-76
2024/01/10 00:14:16;;;;;;;9.25;4.05;;;;;;;-3.32;62.96;100446.41;336711;28;18092;-76
2024/01/10 00:14:28;;;;;;;7.25;3.47;;;;;;;-3.32;62.87;100446.41;337594;28;4877;-76
2024/01/10 00:14:40;;;;;;;6.78;3.50;;;;;;;-3.31;62.67;100448.13;333319;28;17753;-75
2024/01/10 00:14:52;;;;;;;8.50;3.95;;;;;;;-3.30;62.85;100443.91;335682;28;5091;-75
2024/01/10 00:15:05;;;;;;;11.40;4.05;;;;;;;-3.31;62.58;100437.09;335022;28;5401;-75
2024/01/10 00:15:18;;;;;;;11.88;4.18;;;;;;;-3.30;62.13;100443.91;338125;28;4527;-77
2024/01/10 00:15:30;;;;;;;11.38;4.03;;;;;;;-3.29;62.51;100436.34;337138;28;12459;-77
2024/01/10 00:15:42;;;;;;;10.55;4.07;;;;;;;-3.26;62.48;100444.09;338051;28;5610;-79
2024/01/10 00:15:55;;;;;;;9.40;3.58;;;;;;;-3.28;62.12;100433.00;338454;28;5632;-78
2024/01/10 00:16:07;;;;;;;7.40;3.58;;;;;;;-3.26;62.03;100440.66;336342;28;18276;-75
2024/01/10 00:16:19;;;;;;;7.70;3.67;;;;;;;-3.24;62.01;100445.00;338296;28;5606;-76
2024/01/10 00:16:31;;;;;;;8.20;3.83;;;;;;;-3.25;62.01;100440.72;336881;28;14088;-75
2024/01/10 00:16:43;;;;;;;9.30;4.03;;;;;;;-3.28;61.80;100437.19;340717;28;4814;-75
2024/01/10 00:16:55;;;;;;;10.00;3.72;;;;;;;-3.30;61.79;100442.25;339484;28;4704;-75
2024/01/10 00:17:07;;;;;;;10.45;3.75;;;;;;;-3.31;62.06;100440.50;341351;28;4585;-76
2024/01/10 00:17:20;;;;;;;10.88;3.65;;;;;;;-3.32;62.34;100437.91;339869;28;5103;-75
2024/01/10 00:17:32;;;;;;;9.45;3.50;;;;;;;-3.31;62.33;100437.97;335714;28;19028;-78
2024/01/10 00:17:44;;;;;;;9.27;3.50;;;;;;;-3.27;62.40;100439.81;339663;28;4728;-76
2024/01/10 00:17:56;;;;;;;7.88;4.00;;;;;;;-3.25;62.36;100443.25;336812;28;19356;-76
2024/01/10 00:18:08;;;;;;;8.35;4.15;;;;;;;-3.23;62.22;100430.63;340133;28;5521;-76
2024/01/10 00:18:21;;;;;;;8.68;3.78;;;;;;;-3.21;62.07;100440.03;337108;28;13745;-75
2024/01/10 00:18:33;;;;;;;7.65;3.30;;;;;;;-3.18;62.10;100433.31;339833;28;5289;-76
2024/01/10 00:18:45;;;;;;;8.23;3.83;;;;;;;-3.16;62.14;100431.69;337386;28;12981;-75
2024/01/10 00:18:58;;;;;;;8.07;3.97;;;;;;;-3.13;62.05;100435.22;340399;28;5423;-75
2024/01/10 00:19:10;;;;;;;8.75;4.18;;;;;;;-3.12;61.81;100429.31;340675;28;4592;-76
2024/01/10 00:19:22;;;;;;;9.20;3.90;;;;;;;-3.13;62.08;100434.34;333553;28;13240;-75
2024/01/10 00:19:34;;;;;;;8.63;3.67;;;;;;;-3.11;61.80;100430.19;342818;28;4527;-78
2024/01/10 00:19:46;;;;;;;7.53;3.13;;;;;;;-3.10;61.89;100432.78;341321;28;5717;-78
2024/01/10 00:19:58;;;;;;;6.57;3.25;;;;;;;-3.11;61.77;100433.59;337584;28;18416;-78
2024/01/10 00:20:10;;;;;;;7.05;3.50;;;;;;;-3.09;62.45;100436.19;338770;28;4640;-78
2024/01/10 00:20:22;;;;;;;7.35;3.60;;;;;;;-3.08;62.12;100430.28;337257;28;16577;-76
2024/01/10 00:20:34;;;;;;;7.72;3.70;;;;;;;-3.05;61.99;100433.78;341349;28;5088;-76
2024/01/10 00:20:47;;;;;;;8.77;3.80;;;;;;;-3.04;61.85;100430.47;337498;28;5923;-75
2024/01/10 00:20:59;;;;;;;9.43;3.92;;;;;;;-3.01;61.52;100433.09;338396;28;6161;-76
2024/01/10 00:21:11;;;;;;;7.60;3.40;;;;;;;-2.98;62.01;100434.88;339731;28;6946;-76
2024/01/10 00:21:23;;;;;;;8.65;3.55;;;;;;;-2.96;61.33;100440.00;335679;28;17787;-76
2024/01/10 00:21:36;;;;;;;7.80;3.67;;;;;;;-2.96;61.53;100429.84;338727;28;4883;-76
2024/01/10 00:21:48;;;;;;;7.10;3.78;;;;;;;-2.96;61.21;100433.25;336441;28;18271;-77
2024/01/10 00:22:00;;;;;;;8.05;3.88;;;;;;;-3.03;61.27;100429.63;337865;28;4743;-78
2024/01/10 00:22:12;;;;;;;11.80;3.50;;;;;;;-3.07;61.13;100432.03;342456;28;4673;-76
2024/01/10 00:22:24;;;;;;;10.25;3.47;;;;;;;-3.10;61.61;100431.91;339106;28;17525;-75
2024/01/10 00:22:36;;;;;;;6.75;3.28;;;;;;;-3.10;61.74;100437.00;341086;28;5619;-76
2024/01/10 00:22:48;;;;;;;8.52;3.72;;;;;;;-3.11;61.34;100430.19;336902;28;8243;-75
2024/01/10 00:23:00;;;;;;;9.55;3.97;;;;;;;-3.10;61.24;100437.00;338028;28;4615;-78
2024/01/10 00:23:12;;;;;;;9.15;3.97;;;;;;;-3.14;61.04;100433.50;339748;28;5273;-78
2024/01/10 00:23:24;;;;;;;8.07;3.58;;;;;;;-3.12;61.34;100433.53;337579;28;18490;-76
2024/01/10 00:23:36;;;;;;;7.53;3.03;;;;;;;-3.11;61.76;100430.19;338057;28;4670;-76
2024/01/10 00:23:49;;;;;;;7.90;3.10;;;;;;;-3.10;61.74;100434.44;336479;28;12105;-75
2024/01/10 00:24:01;;;;;;;7.63;3.35;;;;;;;-3.15;61.42;100434.28;337224;28;15832;-76
2024/01/10 00:24:13;;;;;;;7.15;3.38;;;;;;;-3.17;61.61;100435.91;339801;28;4592;-76
2024/01/10 00:24:25;;;;;;;8.45;3.65;;;;;;;-3.16;61.52;100435.09;337402;28;19091;-75
2024/01/10 00:24:37;;;;;;;7.85;3.42;;;;;;;-3.21;61.77;100431.53;339449;28;4678;-75
2024/01/10 00:24:49;;;;;;;8.15;3.40;;;;;;;-3.18;61.58;100428.22;338941;28;4773;-76
2024/01/10 00:25:01;;;;;;;8.93;3.63;;;;;;;-3.18;61.51;100438.41;339655;28;4732;-75
2024/01/10 00:25:13;;;;;;;7.40;3.58;;;;;;;-3.18;61.44;100434.16;332754;28;4664;-75
2024/01/10 00:25:25;;;;;;;7.15;3.47;;;;;;;-3.23;61.31;100431.47;338541;28;4692;-75
2024/01/10 00:25:37;;;;;;;7.80;3.45;;;;;;;-3.24;61.15;100439.94;339399;28;4556;-76
2024/01/10 00:25:49;;;;;;;7.95;3.58;;;;;;;-3.28;61.26;100440.63;338958;28;18134;-75
2024/01/10 00:26:02;;;;;;;8.52;3.80;;;;;;;-3.23;61.36;100441.66;341467;28;4679;-76
2024/01/10 00:26:14;;;;;;;7.78;3.88;;;;;;;-3.21;61.12;100434.06;338039;28;12095;-76
2024/01/10 00:26:26;;;;;;;7.28;3.53;;;;;;;-3.29;61.35;100438.88;339279;28;4629;-75
2024/01/10 00:26:38;;;;;;;9.32;3.78;;;;;;;-3.28;61.64;100438.09;341256;28;4562;-75
2024/01/10 00:26:50;;;;;;;10.27;4.07;;;;;;;-3.30;61.58;100434.63;338268;28;18205;-77
2024/01/10 00:27:02;;;;;;;10.88;3.75;;;;;;;-3.25;61.91;100438.19;341359;28;5406;-75
2024/01/10 00:27:15;;;;;;;9.68;3.38;;;;;;;-3.27;61.31;100442.34;339085;28;16554;-77
2024/01/10 00:27:27;;;;;;;10.18;3.75;;;;;;;-3.33;60.87;100439.59;342374;28;4730;-76
2024/01/10 00:27:39;;;;;;;9.85;3.78;;;;;;;-3.31;60.83;100437.97;338349;28;18165;-76
2024/01/10 00:27:51;;;;;;;9.07;3.58;;;;;;;-3.33;60.78;100437.03;341400;28;5589;-75
2024/01/10 00:28:03;;;;;;;9.07;3.60;;;;;;;-3.39;60.50;100434.28;341222;28;4847;-76
2024/01/10 00:28:18;;;;;;;8.15;3.88;;;;;;;-3.37;60.85;100440.28;338865;28;5269;-77
2024/01/10 00:28:30;;;;;;;7.80;4.35;;;;;;;-3.38;61.45;100443.66;331744;28;17894;-78
2024/01/10 00:28:42;;;;;;;8.15;3.95;;;;;;;-3.34;61.45;100436.97;338907;28;5529;-77
2024/01/10 00:28:54;;;;;;;9.68;3.65;;;;;;;-3.30;61.54;100438.81;338098;28;13629;-76
2024/01/10 00:29:15;;;;;;;10.57;3.95;;;;;;;-3.26;61.42;100431.38;336955;28;17066;-75
2024/01/10 00:29:27;;;;;;;9.13;3.92;;;;;;;-3.24;61.71;100434.84;339818;28;5109;-76
2024/01/10 00:29:39;;;;;;;7.65;3.78;;;;;;;-3.21;61.55;100426.44;336725;28;13530;-76
2024/01/10 00:29:52;;;;;;;8.35;3.78;;;;;;;-3.18;61.16;100424.00;338941;28;4632;-75
2024/01/10 00:30:05;;;;;;;10.35;4.10;;;;;;;-3.15;60.99;100434.28;340606;28;4564;-76
2024/01/10 00:30:17;;;;;;;11.40;4.13;;;;;;;-3.17;60.47;100429.97;335572;28;18086;-77
2024/01/10 00:30:29;;;;;;;10.70;3.83;;;;;;;-3.27;60.09;100434.72;339299;28;4584;-76
2024/01/10 00:30:41;;;;;;;9.88;3.75;;;;;;;-3.30;60.24;100439.72;338315;28;19072;-75
2024/01/10 00:30:53;;;;;;;7.95;3.50;;;;;;;-3.31;60.46;100437.97;339640;28;5395;-76
2024/01/10 00:31:05;;;;;;;7.38;3.38;;;;;;;-3.31;60.51;100434.56;336683;28;18229;-76
2024/01/10 00:31:17;;;;;;;7.25;3.22;;;;;;;-3.29;60.38;100440.56;339702;28;5439;-75
2024/01/10 00:31:29;;;;;;;7.38;3.42;;;;;;;-3.25;60.76;100443.25;337682;28;11647;-75
2024/01/10 00:31:41;;;;;;;8.88;3.33;;;;;;;-3.23;60.99;100431.47;339258;28;4511;-76
2024/01/10 00:31:53;;;;;;;8.02;3.28;;;;;;;-3.19;60.92;100429.06;339996;28;4736;-76
2024/01/10 00:32:06;;;;;;;7.85;3.38;;;;;;;-3.15;60.82;100439.38;336843;28;12519;-75
2024/01/10 00:32:18;;;;;;;7.50;3.45;;;;;;;-3.15;60.50;100434.28;339820;28;5335;-76
2024/01/10 00:32:30;;;;;;;8.15;3.47;;;;;;;-3.11;60.72;100435.28;335558;28;4931;-75
2024/01/10 00:32:43;;;;;;;8.02;3.50;;;;;;;-3.07;60.88;100437.09;339657;28;18139;-75
2024/01/10 00:32:55;;;;;;;8.35;3.75;;;;;;;-3.06;60.52;100434.63;339845;28;4907;-75
2024/01/10 00:33:07;;;;;;;8.05;3.83;;;;;;;-3.01;60.58;100437.31;336374;28;16887;-76
2024/01/10 00:33:19;;;;;;;7.05;3.42;;;;;;;-3.01;60.77;100433.09;339918;28;5129;-76
2024/01/10 00:33:31;;;;;;;6.50;3.30;;;;;;;-3.00;60.64;100433.94;337137;28;18125;-77
2024/01/10 00:33:43;;;;;;;7.82;3.35;;;;;;;-2.99;60.48;100439.94;334746;28;5563;-76
2024/01/10 00:33:55;;;;;;;8.25;3.58;;;;;;;-2.95;60.81;100437.53;334980;28;11570;-75
2024/01/10 00:34:07;;;;;;;7.60;3.28;;;;;;;-2.95;61.05;100432.44;338472;28;5295;-76
2024/01/10 00:34:20;;;;;;;8.00;3.63;;;;;;;-2.93;60.91;100441.00;337421;28;4737;-75
2024/01/10 00:34:32;;;;;;;10.05;4.05;;;;;;;-2.97;60.58;100436.63;335699;28;17637;-77
2024/01/10 00:34:44;;;;;;;10.32;3.97;;;;;;;-2.95;60.67;100437.53;337009;28;4817;-75
2024/01/10 00:34:56;;;;;;;9.05;3.30;;;;;;;-3.00;59.71;100433.94;335259;28;12865;-75
2024/01/10 00:35:08;;;;;;;6.75;3.22;;;;;;;-3.02;59.36;100435.56;338663;28;5423;-76
2024/01/10 00:35:20;;;;;;;7.15;3.40;;;;;;;-3.06;59.58;100434.63;335277;28;5017;-76
2024/01/10 00:35:32;;;;;;;7.50;3.72;;;;;;;-3.04;59.74;100433.00;335956;28;19057;-76
2024/01/10 00:35:44;;;;;;;7.78;3.60;;;;;;;-3.04;59.70;100437.19;339157;28;5647;-77
2024/01/10 00:35:56;;;;;;;8.73;3.60;;;;;;;-3.07;59.77;100432.88;336216;28;5305;-75
2024/01/10 00:36:08;;;;;;;7.13;3.58;;;;;;;-3.15;59.62;100438.53;341607;28;4890;-76
2024/01/10 00:36:20;;;;;;;8.30;3.93;;;;;;;-3.12;59.97;100436.06;340131;28;4708;-75
2024/01/10 00:36:32;;;;;;;7.68;3.58;;;;;;;-3.09;59.78;100436.19;336498;28;18746;-75
2024/01/10 00:36:44;;;;;;;8.63;3.60;;;;;;;-3.08;59.91;100435.38;339673;28;5000;-75
2024/01/10 00:36:57;;;;;;;9.13;4.07;;;;;;;-3.05;59.92;100435.47;338378;28;4816;-75
2024/01/10 00:37:09;;;;;;;9.77;4.10;;;;;;;-3.03;60.04;100436.41;340543;28;5312;-76
2024/01/10 00:37:21;;;;;;;8.50;3.67;;;;;;;-3.04;60.07;100433.00;341473;28;4600;-75
2024/01/10 00:37:33;;;;;;;8.93;4.00;;;;;;;-3.07;59.68;100435.41;337303;28;18018;-75
2024/01/10 00:37:45;;;;;;;8.35;3.60;;;;;;;-3.05;59.54;100435.47;341339;28;5255;-75
2024/01/10 00:37:57;;;;;;;7.72;3.38;;;;;;;-3.01;59.65;100437.31;340911;28;13767;-76
2024/01/10 00:38:09;;;;;;;6.75;3.25;;;;;;;-2.99;59.47;100438.25;336478;28;18260;-75
2024/01/10 00:38:21;;;;;;;6.68;3.35;;;;;;;-2.99;59.44;100435.69;338163;28;13137;-76
2024/01/10 00:38:34;;;;;;;7.93;3.58;;;;;;;-2.98;59.57;100434.88;337214;28;17235;-77
2024/01/10 00:38:46;;;;;;;10.00;3.75;;;;;;;-2.98;59.78;100437.41;340464;28;5490;-75
2024/01/10 00:38:58;;;;;;;9.85;3.97;;;;;;;-3.05;59.39;100430.41;338905;28;18307;-75
2024/01/10 00:39:09;;;;;;;10.90;4.25;;;;;;;-3.06;59.76;100433.75;340564;28;4688;-75
2024/01/10 00:39:22;;;;;;;8.80;4.03;;;;;;;-3.12;60.00;100436.06;340480;28;4734;-75
2024/01/10 00:39:34;;;;;;;9.23;4.28;;;;;;;-3.14;60.27;100435.16;333079;28;18033;-76
2024/01/10 00:39:46;;;;;;;9.07;4.00;;;;;;;-3.11;60.13;100430.19;340565;28;4886;-75
2024/01/10 00:39:58;;;;;;;9.52;4.32;;;;;;;-3.08;59.93;100435.38;337956;28;16701;-75
2024/01/10 00:40:10;;;;;;;9.10;3.95;;;;;;;-3.05;60.01;100431.25;339919;28;4725;-75
2024/01/10 00:40:23;;;;;;;8.80;3.70;;;;;;;-3.03;60.54;100429.63;340427;28;4536;-76
2024/01/10 00:40:35;;;;;;;10.30;3.75;;;;;;;-3.01;60.12;100442.41;339401;28;18547;-76
2024/01/10 00:40:47;;;;;;;9.57;3.70;;;;;;;-3.01;59.94;100427.16;340328;28;4603;-77
2024/01/10 00:40:59;;;;;;;9.07;3.70;;;;;;;-2.99;59.82;100438.25;324715;28;18452;-75
2024/01/10 00:41:12;;;;;;;6.68;3.55;;;;;;;-2.96;59.87;100437.47;341517;28;5322;-75
2024/01/10 00:41:24;;;;;;;5.43;2.83;;;;;;;-2.97;59.80;100434.06;337632;28;19186;-75
2024/01/10 00:41:36;;;;;;;5.93;2.75;;;;;;;-2.94;59.95;100426.53;341163;28;4691;-76
2024/01/10 00:41:49;;;;;;;7.35;3.45;;;;;;;-2.94;59.53;100433.31;338700;28;18491;-76
2024/01/10 00:42:01;;;;;;;8.60;3.85;;;;;;;-2.91;59.80;100434.28;341764;28;4512;-75
2024/01/10 00:42:13;;;;;;;8.00;3.80;;;;;;;-2.90;59.79;100436.00;338923;28;12665;-75
2024/01/10 00:42:25;;;;;;;8.68;4.13;;;;;;;-2.89;59.69;100435.19;338313;28;17832;-75
2024/01/10 00:42:37;;;;;;;8.48;4.28;;;;;;;-2.86;59.58;100432.78;340132;28;4764;-76
2024/01/10 00:42:49;;;;;;;9.13;4.38;;;;;;;-2.83;59.99;100432.00;337273;28;18115;-76
2024/01/10 00:43:01;;;;;;;9.68;4.00;;;;;;;-2.86;59.84;100432.78;340863;28;4964;-75
2024/01/10 00:43:13;;;;;;;9.68;4.00;;;;;;;-2.85;59.77;100426.00;339622;28;4754;-75
2024/01/10 00:43:25;;;;;;;9.57;3.85;;;;;;;-2.81;59.57;100431.22;339824;28;4584;-75
2024/01/10 00:43:37;;;;;;;8.60;3.63;;;;;;;-2.82;59.77;100439.69;338676;28;4700;-75
2024/01/10 00:43:49;;;;;;;8.13;3.53;;;;;;;-2.78;59.46;100434.69;333582;28;18210;-75
2024/01/10 00:44:01;;;;;;;8.55;4.00;;;;;;;-2.76;59.66;100438.16;340019;28;5642;-76
2024/01/10 00:44:13;;;;;;;8.75;4.25;;;;;;;-2.81;59.33;100431.22;337733;28;4618;-75
2024/01/10 00:44:26;;;;;;;9.18;3.75;;;;;;;-2.76;59.32;100425.44;339601;28;4716;-75
2024/01/10 00:44:39;;;;;;;8.98;3.78;;;;;;;-2.76;59.35;100422.88;338714;28;5285;-76
2024/01/10 00:44:51;;;;;;;8.98;3.55;;;;;;;-2.75;59.28;100429.72;337328;28;17974;-75
2024/01/10 00:45:03;;;;;;;9.27;3.78;;;;;;;-2.75;59.57;100422.94;337715;28;5594;-75
2024/01/10 00:45:16;;;;;;;8.67;3.80;;;;;;;-2.77;59.13;100427.13;331433;28;18147;-75
2024/01/10 00:45:28;;;;;;;8.55;3.70;;;;;;;-2.74;59.25;100428.88;338688;28;5286;-75
2024/01/10 00:45:40;;;;;;;8.15;3.58;;;;;;;-2.74;59.19;100427.19;336415;28;17963;-77
2024/01/10 00:45:52;;;;;;;8.30;3.67;;;;;;;-2.76;58.95;100425.44;341147;28;4747;-75
2024/01/10 00:46:04;;;;;;;8.00;3.80;;;;;;;-2.74;59.62;100431.44;335569;28;18060;-75
2024/01/10 00:46:16;;;;;;;8.10;3.90;;;;;;;-2.73;59.39;100428.09;340185;28;4532;-75
2024/01/10 00:46:28;;;;;;;9.05;3.63;;;;;;;-2.72;59.41;100424.72;339530;28;4508;-76
2024/01/10 00:46:40;;;;;;;9.13;3.47;;;;;;;-2.71;59.18;100426.47;337052;28;6064;-76
2024/01/10 00:46:53;;;;;;;9.05;3.60;;;;;;;-2.70;59.21;100428.19;333571;28;4756;-77
2024/01/10 00:47:05;;;;;;;9.48;3.45;;;;;;;-2.69;59.24;100427.38;337939;28;11331;-76
2024/01/10 00:47:17;;;;;;;7.55;3.25;;;;;;;-2.73;58.73;100423.84;340965;28;4682;-75
2024/01/10 00:47:29;;;;;;;7.70;3.28;;;;;;;-2.78;59.54;100420.28;341150;28;4705;-75
2024/01/10 00:47:41;;;;;;;7.10;3.47;;;;;;;-2.76;59.34;100418.66;338720;28;18036;-75
2024/01/10 00:47:53;;;;;;;5.80;3.20;;;;;;;-2.78;59.29;100422.81;339060;28;4941;-75
2024/01/10 00:48:05;;;;;;;5.63;3.03;;;;;;;-2.79;58.82;100423.66;332670;28;18255;-76
2024/01/10 00:48:17;;;;;;;8.23;3.38;;;;;;;-2.82;58.85;100434.59;336746;28;17496;-76
2024/01/10 00:48:29;;;;;;;10.00;4.35;;;;;;;-2.78;59.39;100425.38;336758;28;10050;-75
2024/01/10 00:48:41;;;;;;;8.32;3.80;;;;;;;-2.76;58.99;100425.44;338872;28;5668;-75
2024/01/10 00:48:53;;;;;;;7.25;3.35;;;;;;;-2.77;58.75;100423.72;338305;28;4756;-75
2024/01/10 00:49:05;;;;;;;6.55;3.55;;;;;;;-2.78;58.91;100424.50;336795;28;11788;-76
2024/01/10 00:49:17;;;;;;;7.53;3.85;;;;;;;-2.82;58.84;100426.09;339766;28;4575;-75
2024/01/10 00:49:29;;;;;;;7.97;3.65;;;;;;;-2.77;58.85;100421.16;339569;28;12179;-75
2024/01/10 00:49:41;;;;;;;8.32;3.75;;;;;;;-2.78;59.14;100424.50;330827;28;5225;-75
2024/01/10 00:49:53;;;;;;;8.05;3.55;;;;;;;-2.78;58.89;100427.06;339840;28;5178;-75
2024/01/10 00:50:06;;;;;;;8.18;3.17;;;;;;;-2.77;58.26;100426.25;337942;28;12623;-75
2024/01/10 00:50:18;;;;;;;9.77;3.50;;;;;;;-2.77;58.72;100423.72;340695;28;4791;-75
2024/01/10 00:50:30;;;;;;;8.80;3.80;;;;;;;-2.77;58.51;100422.03;338722;28;4553;-75
2024/01/10 00:50:44;;;;;;;9.52;4.07;;;;;;;-2.77;58.60;100421.16;340068;28;4600;-76
2024/01/10 00:50:56;;;;;;;9.32;4.20;;;;;;;-2.75;58.77;100424.63;337902;28;13143;-75
2024/01/10 00:51:08;;;;;;;8.05;3.83;;;;;;;-2.72;58.64;100424.72;339412;28;4705;-75
2024/01/10 00:51:21;;;;;;;7.57;3.50;;;;;;;-2.72;58.73;100419.63;336626;28;18225;-75
2024/01/10 00:51:33;;;;;;;7.47;3.42;;;;;;;-2.70;58.57;100423.09;340186;28;4923;-75
2024/01/10 00:51:45;;;;;;;7.53;3.55;;;;;;;-2.67;58.52;100425.75;339440;28;6097;-75
2024/01/10 00:51:57;;;;;;;6.70;3.28;;;;;;;-2.67;58.65;100429.16;336426;28;19329;-76
2024/01/10 00:52:09;;;;;;;7.03;3.75;;;;;;;-2.64;58.51;100423.28;339907;28;4712;-75
2024/01/10 00:52:21;;;;;;;7.25;4.05;;;;;;;-2.62;58.69;100429.28;339667;28;18073;-76
2024/01/10 00:52:33;;;;;;;7.88;4.20;;;;;;;-2.62;58.41;100427.63;335930;28;18281;-75
2024/01/10 00:52:46;;;;;;;8.82;3.92;;;;;;;-2.60;58.34;100435.31;338221;28;5205;-75
2024/01/10 00:52:58;;;;;;;9.43;3.97;;;;;;;-2.59;58.50;100426.88;335168;28;18234;-76
2024/01/10 00:53:10;;;;;;;9.02;3.70;;;;;;;-2.57;58.40;100425.22;338968;28;5435;-76
2024/01/10 00:53:22;;;;;;;8.57;3.67;;;;;;;-2.55;58.20;100422.75;337228;28;18063;-76
2024/01/10 00:53:35;;;;;;;8.80;4.20;;;;;;;-2.52;57.99;100423.69;340868;28;4693;-77
2024/01/10 00:53:47;;;;;;;8.38;4.13;;;;;;;-2.53;58.16;100421.97;337801;28;15547;-76
2024/01/10 00:53:59;;;;;;;8.07;3.65;;;;;;;-2.53;58.02;100423.66;336115;28;4810;-75
2024/01/10 00:54:11;;;;;;;9.02;3.83;;;;;;;-2.54;58.06;100422.78;341333;28;4721;-76
2024/01/10 00:54:23;;;;;;;8.60;3.65;;;;;;;-2.53;57.94;100429.63;334985;28;16739;-76
2024/01/10 00:54:35;;;;;;;7.82;3.42;;;;;;;-2.53;57.69;100427.06;338959;28;4715;-76
2024/01/10 00:54:47;;;;;;;7.25;3.53;;;;;;;-2.54;58.12;100430.41;336206;28;16573;-77
2024/01/10 00:54:59;;;;;;;7.00;3.40;;;;;;;-2.51;57.91;100430.53;341179;28;4514;-76
2024/01/10 00:55:11;;;;;;;5.70;3.33;;;;;;;-2.50;58.25;100419.50;343043;28;4807;-75
2024/01/10 00:55:23;;;;;;;7.18;3.28;;;;;;;-2.49;57.96;100423.81;337887;28;17998;-76
2024/01/10 00:55:35;;;;;;;7.82;3.35;;;;;;;-2.50;57.62;100429.69;339851;28;4556;-75
2024/01/10 00:55:48;;;;;;;6.72;3.47;;;;;;;-2.46;57.86;100431.53;339274;28;4527;-75
2024/01/10 00:56:00;;;;;;;6.05;3.70;;;;;;;-2.49;57.88;100428.91;337811;28;18132;-75
2024/01/10 00:56:12;;;;;;;6.68;3.95;;;;;;;-2.48;58.05;100429.75;342395;28;5303;-77
2024/01/10 00:56:24;;;;;;;6.40;3.67;;;;;;;-2.47;57.68;100428.94;337427;28;18388;-77
2024/01/10 00:56:36;;;;;;;6.13;3.28;;;;;;;-2.48;57.75;100422.97;340892;28;4604;-76
2024/01/10 00:56:50;;;;;;;6.47;3.22;;;;;;;-2.47;57.93;100427.25;338932;28;4846;-76
2024/01/10 00:57:02;;;;;;;8.18;3.63;;;;;;;-2.43;58.01;100425.69;340367;28;4563;-76
2024/01/10 00:57:14;;;;;;;7.70;3.75;;;;;;;-2.44;58.16;100424.81;338165;28;4986;-75
2024/01/10 00:57:26;;;;;;;8.70;3.90;;;;;;;-2.45;58.64;100423.09;339868;28;4709;-75
2024/01/10 00:57:38;;;;;;;7.85;3.80;;;;;;;-2.43;58.47;100429.09;338978;28;4759;-75
2024/01/10 00:57:50;;;;;;;9.10;3.70;;;;;;;-2.43;58.33;100429.09;336750;28;17067;-75